Bluegrove, Texas
Current Conditions -  °F | °C
As of 8:15 PM on Sunday 21 Dec 2014 (Local Time) from KCWC Reporting Station
Clear Clear  
Wind Chill: 50°   Ceiling: Unl
Heat Index: 50°   Visibility: 10mi
Dew Point: 44°   Wind: 12mph
Humidity: 79%   Direction: 150°SSE
Pressure: 29.7"   Gusts: NA
Location:  33.67°N, 98.23°W
Report Text: KCWC 220215Z AUTO 15010KT 10SM CLR 10/07 A2970 RMK AO2 T01000066
Loading
Personal Weather Stations






























Interactive Weather Map New forecast layout! Learn more

10-Day Weather Forecast

Advertisements
Track Severe Weather on mobile